createdAt,value
2022-08-02T00:00:57.299Z,20.04
2022-08-02T00:01:59.776Z,20.07
2022-08-02T00:03:02.203Z,20.01
2022-08-02T00:04:04.668Z,20.00
2022-08-02T00:05:08.418Z,19.95
2022-08-02T00:06:10.865Z,19.88
2022-08-02T00:07:15.010Z,19.85
2022-08-02T00:08:17.367Z,19.74
2022-08-02T00:09:19.732Z,19.81
2022-08-02T00:10:23.832Z,19.83
2022-08-02T00:11:26.241Z,19.83
2022-08-02T00:12:28.555Z,19.67
2022-08-02T00:13:30.915Z,19.57
2022-08-02T00:14:33.367Z,19.49
2022-08-02T00:15:35.753Z,19.56
2022-08-02T00:16:38.699Z,19.54
2022-08-02T00:17:41.092Z,19.50
2022-08-02T00:18:44.410Z,19.60
2022-08-02T00:19:46.827Z,19.55
2022-08-02T00:20:49.150Z,19.52
2022-08-02T00:21:51.649Z,19.49
2022-08-02T00:22:53.928Z,19.36
2022-08-02T00:24:03.355Z,19.33
2022-08-02T00:25:18.408Z,19.50
2022-08-02T00:26:20.787Z,19.54
2022-08-02T00:27:23.063Z,19.51
2022-08-02T00:28:27.358Z,19.56
2022-08-02T00:29:31.277Z,19.60
2022-08-02T00:30:33.613Z,19.58
2022-08-02T00:31:35.976Z,19.63
2022-08-02T00:32:38.316Z,19.53
2022-08-02T00:34:05.317Z,19.47
2022-08-02T00:35:02.871Z,19.30
2022-08-02T00:36:05.172Z,19.32
2022-08-02T00:37:07.634Z,19.36
2022-08-02T00:38:09.859Z,19.44
2022-08-02T00:39:34.665Z,19.49
2022-08-02T00:40:34.568Z,19.53
2022-08-02T00:41:45.878Z,19.61
2022-08-02T00:42:59.830Z,19.60
2022-08-02T00:44:02.087Z,19.63
2022-08-02T00:45:04.789Z,19.66
2022-08-02T00:46:07.025Z,19.68
2022-08-02T00:47:09.587Z,19.63
2022-08-02T00:48:13.355Z,19.65
2022-08-02T00:49:15.743Z,19.65
2022-08-02T00:50:19.087Z,19.66
2022-08-02T00:51:21.318Z,19.65
2022-08-02T00:52:24.252Z,19.60
2022-08-02T00:53:26.581Z,19.51
2022-08-02T00:54:28.941Z,19.41
2022-08-02T00:55:32.540Z,19.21
2022-08-02T00:56:35.422Z,19.06
2022-08-02T00:57:37.810Z,19.00
2022-08-02T00:58:40.053Z,18.85
2022-08-02T00:59:42.379Z,18.77
2022-08-02T01:00:44.712Z,18.75
2022-08-02T01:01:56.366Z,18.84
2022-08-02T01:02:59.993Z,18.79
2022-08-02T01:04:02.242Z,18.72
2022-08-02T01:05:05.141Z,18.73
2022-08-02T01:06:11.421Z,18.70
2022-08-02T01:07:14.619Z,18.65
2022-08-02T01:08:17.579Z,18.65
2022-08-02T01:09:19.905Z,18.66
2022-08-02T01:10:22.275Z,18.64
2022-08-02T01:11:24.785Z,18.70
2022-08-02T01:12:27.725Z,18.74
2022-08-02T01:13:30.010Z,18.81
2022-08-02T01:14:32.328Z,18.89
2022-08-02T01:15:40.845Z,18.83
2022-08-02T01:16:49.867Z,18.76
2022-08-02T01:17:58.224Z,18.75
2022-08-02T01:19:26.224Z,18.78
2022-08-02T01:20:39.348Z,18.72
2022-08-02T01:22:16.780Z,18.73
2022-08-02T01:23:43.802Z,18.75
2022-08-02T01:25:09.080Z,18.88
2022-08-02T01:26:14.159Z,18.93
2022-08-02T01:27:20.442Z,18.94
2022-08-02T01:28:50.780Z,18.90
2022-08-02T01:29:59.567Z,18.83
2022-08-02T01:31:14.262Z,18.85
2022-08-02T01:32:23.571Z,18.97
2022-08-02T01:33:43.146Z,19.10
2022-08-02T01:34:51.875Z,19.03
2022-08-02T01:35:57.649Z,19.07
2022-08-02T01:37:11.211Z,19.08
2022-08-02T01:38:32.855Z,19.07
2022-08-02T01:39:38.986Z,18.99
2022-08-02T01:40:44.381Z,19.02
2022-08-02T01:41:48.537Z,19.08
2022-08-02T01:43:00.795Z,19.06
2022-08-02T01:44:05.007Z,19.06
2022-08-02T01:45:09.154Z,19.14
2022-08-02T01:46:13.964Z,19.09
2022-08-02T01:47:24.245Z,19.05
2022-08-02T01:48:29.608Z,19.05
2022-08-02T01:49:33.658Z,18.98
2022-08-02T01:50:38.116Z,18.99
2022-08-02T01:52:01.690Z,19.03
2022-08-02T01:53:08.224Z,19.02
2022-08-02T01:54:14.489Z,18.99
2022-08-02T01:55:23.097Z,19.03
2022-08-02T01:56:39.130Z,19.02
2022-08-02T01:57:46.409Z,19.04
2022-08-02T01:58:49.144Z,19.02
2022-08-02T01:59:54.839Z,19.04
2022-08-02T02:00:59.456Z,19.05
2022-08-02T02:02:03.081Z,19.08
2022-08-02T02:03:08.059Z,19.14
2022-08-02T02:04:16.294Z,19.16
2022-08-02T02:05:20.663Z,19.19
2022-08-02T02:06:24.111Z,19.06
2022-08-02T02:07:27.427Z,18.99
2022-08-02T02:08:34.454Z,18.90
2022-08-02T02:09:49.262Z,18.91
2022-08-02T02:10:54.225Z,18.82
2022-08-02T02:12:11.835Z,18.92
2022-08-02T02:13:18.517Z,19.05
2022-08-02T02:14:21.844Z,19.06
2022-08-02T02:15:25.432Z,19.07
2022-08-02T02:16:30.392Z,19.08
2022-08-02T02:18:11.422Z,19.11
2022-08-02T02:18:56.949Z,19.04
2022-08-02T02:20:02.369Z,19.00
2022-08-02T02:21:04.935Z,18.94
2022-08-02T02:22:07.265Z,18.93
2022-08-02T02:23:11.182Z,18.87
2022-08-02T02:24:15.707Z,18.76
2022-08-02T02:25:36.048Z,18.78
2022-08-02T02:26:52.431Z,18.62
2022-08-02T02:28:02.823Z,18.59
2022-08-02T02:29:08.813Z,18.59
2022-08-02T02:30:12.265Z,18.56
2022-08-02T02:31:20.126Z,18.56
2022-08-02T02:32:24.978Z,18.66
2022-08-02T02:33:30.603Z,18.76
2022-08-02T02:34:37.778Z,18.78
2022-08-02T02:35:42.112Z,18.85
2022-08-02T02:36:50.555Z,19.00
2022-08-02T02:37:54.750Z,18.99
2022-08-02T02:39:04.066Z,18.94
2022-08-02T02:40:08.481Z,18.96
2022-08-02T02:41:12.837Z,18.94
2022-08-02T02:42:17.477Z,18.92
2022-08-02T02:43:21.542Z,18.90
2022-08-02T02:44:24.742Z,18.86
2022-08-02T02:45:28.005Z,18.63
2022-08-02T02:46:31.238Z,18.43
2022-08-02T02:47:40.725Z,18.35
2022-08-02T02:48:44.175Z,18.33
2022-08-02T02:49:49.981Z,18.24
2022-08-02T02:50:53.595Z,18.13
2022-08-02T02:51:57.399Z,18.01
2022-08-02T02:53:01.169Z,17.87
2022-08-02T02:54:33.643Z,17.88
2022-08-02T02:55:28.518Z,17.82
2022-08-02T02:56:31.085Z,17.71
2022-08-02T02:57:34.025Z,17.78
2022-08-02T02:58:38.605Z,17.91
2022-08-02T02:59:42.949Z,18.05
2022-08-02T03:01:10.842Z,18.09
2022-08-02T03:02:14.523Z,18.12
2022-08-02T03:03:19.597Z,18.12
2022-08-02T03:04:25.000Z,18.20
2022-08-02T03:05:27.486Z,18.16
2022-08-02T03:06:30.620Z,18.22
2022-08-02T03:07:34.215Z,18.06
2022-08-02T03:08:36.527Z,17.87
2022-08-02T03:09:39.259Z,17.84
2022-08-02T03:10:44.235Z,17.77
2022-08-02T03:11:46.794Z,17.64
2022-08-02T03:12:49.653Z,17.47
2022-08-02T03:13:53.423Z,17.44
2022-08-02T03:14:57.520Z,17.40
2022-08-02T03:16:00.317Z,17.45
2022-08-02T03:17:02.599Z,17.38
2022-08-02T03:18:05.188Z,17.48
2022-08-02T03:19:07.455Z,17.62
2022-08-02T03:20:12.866Z,17.75
2022-08-02T03:21:15.340Z,17.88
2022-08-02T03:22:17.616Z,17.95
2022-08-02T03:23:19.883Z,17.99
2022-08-02T03:24:27.837Z,17.97
2022-08-02T03:25:30.799Z,18.01
2022-08-02T03:26:33.070Z,18.02
2022-08-02T03:27:35.536Z,18.03
2022-08-02T03:28:37.892Z,17.97
2022-08-02T03:29:40.177Z,17.99
2022-08-02T03:30:42.495Z,18.06
2022-08-02T03:31:46.418Z,18.03
2022-08-02T03:32:48.949Z,18.09
2022-08-02T03:33:51.757Z,18.09
2022-08-02T03:34:54.649Z,18.05
2022-08-02T03:36:01.466Z,18.11
2022-08-02T03:37:04.161Z,18.09
2022-08-02T03:38:07.487Z,18.15
2022-08-02T03:39:10.794Z,18.16
2022-08-02T03:40:13.536Z,18.17
2022-08-02T03:41:18.678Z,18.10
2022-08-02T03:42:25.428Z,18.07
2022-08-02T03:43:29.007Z,18.08
2022-08-02T03:44:32.038Z,17.81
2022-08-02T03:45:34.762Z,17.65
2022-08-02T03:46:39.524Z,17.45
2022-08-02T03:47:43.377Z,17.38
2022-08-02T03:48:47.677Z,17.47
2022-08-02T03:49:51.424Z,17.48
2022-08-02T03:50:54.640Z,17.59
2022-08-02T03:51:57.098Z,17.62
2022-08-02T03:52:59.925Z,17.59
2022-08-02T03:54:03.299Z,17.41
2022-08-02T03:55:05.765Z,17.42
2022-08-02T03:56:09.448Z,17.37
2022-08-02T03:57:11.956Z,17.34
2022-08-02T03:58:21.700Z,17.28
2022-08-02T03:59:23.979Z,17.40
2022-08-02T04:00:26.297Z,17.54
2022-08-02T04:01:28.647Z,17.47
2022-08-02T04:02:31.011Z,17.46
2022-08-02T04:03:33.332Z,17.46
2022-08-02T04:04:35.719Z,17.44
2022-08-02T04:05:38.247Z,17.40
2022-08-02T04:07:00.554Z,17.24
2022-08-02T04:08:36.263Z,17.04
2022-08-02T04:09:25.581Z,17.02
2022-08-02T04:10:27.853Z,16.80
2022-08-02T04:11:32.807Z,16.73
2022-08-02T04:12:35.260Z,16.72
2022-08-02T04:13:38.748Z,16.89
2022-08-02T04:14:41.451Z,17.00
2022-08-02T04:15:44.573Z,17.11
2022-08-02T04:16:52.701Z,17.32
2022-08-02T04:17:59.447Z,17.41
2022-08-02T04:19:03.798Z,17.43
2022-08-02T04:20:12.964Z,17.47
2022-08-02T04:21:19.417Z,17.47
2022-08-02T04:22:40.364Z,17.44
2022-08-02T04:23:45.432Z,17.45
2022-08-02T04:24:51.836Z,17.53
2022-08-02T04:25:55.584Z,17.60
2022-08-02T04:27:19.081Z,17.53
2022-08-02T04:28:27.760Z,17.53
2022-08-02T04:29:32.992Z,17.67
2022-08-02T04:30:36.847Z,17.87
2022-08-02T04:31:40.369Z,18.02
2022-08-02T04:32:45.479Z,18.62
2022-08-02T04:33:47.889Z,19.61
2022-08-02T04:35:17.741Z,20.84
2022-08-02T04:36:14.947Z,21.53
2022-08-02T04:37:34.609Z,21.73
2022-08-02T04:38:37.065Z,21.75
2022-08-02T04:39:42.557Z,21.88
2022-08-02T04:40:55.825Z,22.31
2022-08-02T04:41:58.283Z,22.67
2022-08-02T04:43:00.638Z,23.02
2022-08-02T04:44:03.125Z,22.95
2022-08-02T04:45:07.187Z,22.86
2022-08-02T04:46:09.587Z,22.74
2022-08-02T04:47:12.058Z,22.11
2022-08-02T04:48:14.391Z,21.68
2022-08-02T04:49:16.753Z,21.51
2022-08-02T04:50:20.881Z,21.37
2022-08-02T04:51:23.126Z,21.25
2022-08-02T04:52:45.530Z,21.84
2022-08-02T04:53:48.236Z,22.02
2022-08-02T04:54:51.277Z,21.76
2022-08-02T04:55:53.618Z,22.36
2022-08-02T04:56:55.837Z,23.37
2022-08-02T04:57:59.162Z,24.21
2022-08-02T04:59:01.582Z,24.97
2022-08-02T05:00:06.099Z,24.79
2022-08-02T05:01:08.442Z,24.04
2022-08-02T05:02:10.984Z,23.50
2022-08-02T05:03:14.584Z,23.82
2022-08-02T05:04:16.811Z,23.93
2022-08-02T05:05:19.192Z,23.89
2022-08-02T05:06:21.480Z,24.04
2022-08-02T05:07:23.789Z,23.28
2022-08-02T05:08:26.146Z,22.32
2022-08-02T05:09:28.661Z,22.34
2022-08-02T05:10:30.937Z,23.09
2022-08-02T05:11:36.519Z,25.25
2022-08-02T05:12:40.161Z,27.34
2022-08-02T05:13:58.723Z,28.20
2022-08-02T05:15:01.983Z,28.82
2022-08-02T05:16:04.654Z,29.23
2022-08-02T05:17:06.917Z,30.08
2022-08-02T05:18:09.378Z,29.55
2022-08-02T05:19:11.719Z,28.87
2022-08-02T05:20:14.608Z,26.74
2022-08-02T05:21:16.929Z,24.70
2022-08-02T05:22:19.273Z,23.42
2022-08-02T05:23:21.698Z,22.73
2022-08-02T05:24:24.065Z,22.18
2022-08-02T05:25:26.529Z,22.05
2022-08-02T05:26:28.844Z,21.89
2022-08-02T05:27:33.086Z,21.80
2022-08-02T05:28:35.365Z,22.18
2022-08-02T05:29:39.003Z,23.60
2022-08-02T05:30:55.543Z,24.89
2022-08-02T05:31:57.859Z,25.12
2022-08-02T05:33:00.167Z,25.53
2022-08-02T05:34:02.456Z,26.16
2022-08-02T05:35:05.110Z,26.82
2022-08-02T05:36:09.416Z,27.30
2022-08-02T05:37:12.187Z,27.64
2022-08-02T05:38:16.147Z,28.55
2022-08-02T05:39:18.930Z,29.25
2022-08-02T05:40:25.943Z,30.03
2022-08-02T05:41:28.674Z,29.66
2022-08-02T05:42:33.751Z,30.03
2022-08-02T05:43:36.081Z,31.01
2022-08-02T05:44:38.375Z,30.73
2022-08-02T05:45:41.416Z,30.18
2022-08-02T05:46:43.962Z,29.24
2022-08-02T05:47:46.395Z,28.52
2022-08-02T05:48:49.099Z,28.35
2022-08-02T05:49:51.662Z,27.79
2022-08-02T05:51:03.997Z,29.48
2022-08-02T05:52:09.273Z,30.63
2022-08-02T05:53:30.212Z,30.75
2022-08-02T05:54:53.646Z,31.20
2022-08-02T05:56:08.842Z,31.34
2022-08-02T05:57:46.096Z,30.42
2022-08-02T05:58:57.399Z,29.54
2022-08-02T06:00:11.469Z,28.20
2022-08-02T06:01:27.327Z,28.49
2022-08-02T06:02:44.018Z,27.66
2022-08-02T06:03:52.113Z,26.73
2022-08-02T06:05:05.707Z,26.07
2022-08-02T06:06:14.089Z,26.55
2022-08-02T06:07:19.636Z,27.56
2022-08-02T06:08:26.187Z,28.47
2022-08-02T06:09:29.398Z,29.22
2022-08-02T06:10:32.077Z,29.70
2022-08-02T06:11:37.110Z,30.08
2022-08-02T06:13:01.359Z,30.20
2022-08-02T06:14:05.690Z,30.71
2022-08-02T06:15:08.429Z,29.97
2022-08-02T06:16:14.111Z,29.33
2022-08-02T06:17:18.072Z,29.50
2022-08-02T06:18:28.178Z,30.50
2022-08-02T06:19:47.051Z,31.29
2022-08-02T06:20:58.650Z,31.49
2022-08-02T06:22:33.597Z,32.31
2022-08-02T06:23:42.148Z,32.39
2022-08-02T06:25:02.442Z,31.77
2022-08-02T06:26:07.773Z,31.57
2022-08-02T06:27:13.461Z,32.61
2022-08-02T06:28:17.071Z,33.61
2022-08-02T06:29:21.067Z,34.32
2022-08-02T06:30:26.120Z,35.64
2022-08-02T06:31:28.872Z,35.91
2022-08-02T06:32:34.251Z,35.81
2022-08-02T06:33:36.832Z,36.19
2022-08-02T06:34:39.943Z,36.91
2022-08-02T06:35:51.976Z,36.75
2022-08-02T06:37:13.946Z,35.64
2022-08-02T06:38:24.156Z,34.03
2022-08-02T06:39:40.556Z,33.30
2022-08-02T06:41:12.687Z,33.22
2022-08-02T06:42:28.841Z,34.11
2022-08-02T06:43:54.500Z,33.97
2022-08-02T06:44:58.398Z,32.70
2022-08-02T06:47:09.530Z,33.04
2022-08-02T06:47:25.165Z,33.68
2022-08-02T06:48:27.514Z,34.66
2022-08-02T06:49:51.347Z,35.60
2022-08-02T06:50:52.318Z,35.76
2022-08-02T06:51:54.826Z,35.08
2022-08-02T06:52:57.246Z,34.36
2022-08-02T06:53:59.565Z,34.66
2022-08-02T06:55:04.271Z,35.89
2022-08-02T06:56:07.167Z,36.44
2022-08-02T06:57:11.469Z,36.76
2022-08-02T06:58:14.249Z,34.67
2022-08-02T06:59:16.561Z,33.32
2022-08-02T07:00:18.875Z,32.26
2022-08-02T07:01:21.576Z,31.71
2022-08-02T07:02:24.455Z,32.01
2022-08-02T07:03:26.961Z,31.99
2022-08-02T07:04:29.629Z,31.58
2022-08-02T07:05:32.014Z,30.98
2022-08-02T07:06:34.407Z,29.95
2022-08-02T07:07:36.921Z,30.59
2022-08-02T07:08:39.583Z,30.90
2022-08-02T07:09:56.783Z,31.45
2022-08-02T07:11:04.042Z,31.38
2022-08-02T07:12:07.673Z,29.34
2022-08-02T07:13:10.820Z,27.78
2022-08-02T07:14:13.232Z,26.99
2022-08-02T07:15:16.443Z,25.90
2022-08-02T07:16:18.926Z,25.53
2022-08-02T07:17:21.332Z,25.26
2022-08-02T07:18:24.604Z,25.43
2022-08-02T07:19:37.456Z,25.48
2022-08-02T07:20:44.275Z,24.90
2022-08-02T07:21:57.760Z,24.92
2022-08-02T07:23:03.234Z,25.13
2022-08-02T07:24:05.808Z,24.99
2022-08-02T07:25:09.079Z,24.48
2022-08-02T07:26:11.445Z,24.73
2022-08-02T07:27:13.935Z,25.03
2022-08-02T07:28:24.086Z,24.21
2022-08-02T07:29:27.134Z,23.79
2022-08-02T07:30:36.166Z,23.99
2022-08-02T07:31:38.530Z,24.20
2022-08-02T07:32:40.945Z,24.02
2022-08-02T07:33:46.794Z,24.12
2022-08-02T07:34:52.523Z,24.51
2022-08-02T07:35:57.994Z,24.31
2022-08-02T07:37:04.393Z,24.42
2022-08-02T07:38:09.585Z,24.43
2022-08-02T07:39:12.919Z,24.68
2022-08-02T07:40:19.996Z,24.83
2022-08-02T07:41:22.937Z,25.38
2022-08-02T07:42:25.689Z,25.59
2022-08-02T07:43:28.161Z,25.74
2022-08-02T07:44:34.716Z,25.61
2022-08-02T07:45:45.807Z,25.77
2022-08-02T07:46:59.617Z,25.77
2022-08-02T07:48:02.053Z,26.23
2022-08-02T07:49:04.581Z,26.29
2022-08-02T07:50:07.776Z,26.41
2022-08-02T07:51:13.008Z,25.74
2022-08-02T07:52:20.643Z,25.19
2022-08-02T07:53:50.142Z,24.89
2022-08-02T07:54:45.339Z,25.04
2022-08-02T07:55:47.594Z,24.82
2022-08-02T07:56:57.470Z,24.72
2022-08-02T07:58:01.283Z,24.87
2022-08-02T07:59:05.028Z,24.35
2022-08-02T08:00:09.695Z,24.35
2022-08-02T08:01:14.927Z,24.50
2022-08-02T08:02:17.926Z,23.96
2022-08-02T08:03:20.182Z,23.98
2022-08-02T08:04:22.504Z,24.49
2022-08-02T08:05:24.850Z,24.81
2022-08-02T08:06:28.902Z,24.82
2022-08-02T08:07:31.484Z,24.95
2022-08-02T08:08:35.014Z,25.46
2022-08-02T08:09:41.943Z,25.90
2022-08-02T08:10:44.758Z,25.78
2022-08-02T08:11:47.176Z,25.78
2022-08-02T08:12:49.592Z,26.11
2022-08-02T08:13:52.119Z,26.34
2022-08-02T08:14:54.508Z,26.14
2022-08-02T08:15:56.921Z,26.29
2022-08-02T08:16:59.349Z,26.03
2022-08-02T08:18:03.225Z,25.43
2022-08-02T08:19:05.873Z,24.95
2022-08-02T08:20:11.757Z,24.98
2022-08-02T08:21:16.415Z,25.37
2022-08-02T08:22:19.617Z,25.67
2022-08-02T08:23:22.122Z,25.44
2022-08-02T08:24:24.390Z,25.59
2022-08-02T08:25:27.184Z,26.18
2022-08-02T08:26:29.899Z,25.45
2022-08-02T08:27:32.227Z,26.01
2022-08-02T08:28:35.583Z,26.51
2022-08-02T08:29:37.962Z,26.88
2022-08-02T08:30:42.043Z,26.58
2022-08-02T08:31:44.369Z,25.86
2022-08-02T08:32:46.696Z,25.69
2022-08-02T08:33:48.966Z,25.43
2022-08-02T08:34:51.391Z,25.61
2022-08-02T08:35:54.482Z,25.26
2022-08-02T08:36:57.308Z,26.08
2022-08-02T08:38:02.051Z,26.61
2022-08-02T08:39:08.769Z,26.90
2022-08-02T08:40:12.353Z,27.27
2022-08-02T08:41:17.197Z,27.04
2022-08-02T08:42:19.568Z,26.34
2022-08-02T08:43:21.988Z,26.22
2022-08-02T08:44:24.414Z,25.60
2022-08-02T08:45:26.939Z,25.22
2022-08-02T08:46:34.493Z,25.03
2022-08-02T08:47:42.791Z,26.03
2022-08-02T08:48:48.653Z,26.13
2022-08-02T08:49:54.936Z,26.46
2022-08-02T08:51:04.553Z,26.02
2022-08-02T08:52:07.755Z,25.79
2022-08-02T08:53:15.637Z,25.33
2022-08-02T08:54:18.953Z,26.09
2022-08-02T08:55:26.691Z,26.55
2022-08-02T08:56:33.018Z,26.08
2022-08-02T08:57:39.859Z,25.84
2022-08-02T08:58:44.211Z,26.12
2022-08-02T08:59:46.529Z,26.44
2022-08-02T09:00:49.184Z,26.37
2022-08-02T09:01:55.490Z,25.86
2022-08-02T09:02:58.802Z,25.45
2022-08-02T09:04:01.745Z,25.59
2022-08-02T09:05:04.375Z,26.39
2022-08-02T09:06:06.817Z,26.37
2022-08-02T09:07:09.389Z,26.19
2022-08-02T09:08:16.696Z,26.68
2022-08-02T09:09:19.389Z,27.33
2022-08-02T09:10:34.669Z,27.71
2022-08-02T09:11:36.924Z,28.08
2022-08-02T09:12:39.234Z,27.53
2022-08-02T09:13:50.875Z,26.73
2022-08-02T09:14:53.184Z,26.69
2022-08-02T09:16:12.170Z,26.65
2022-08-02T09:17:15.664Z,27.00
2022-08-02T09:18:18.562Z,27.07
2022-08-02T09:19:26.843Z,26.68
2022-08-02T09:20:30.870Z,26.35
2022-08-02T09:21:37.987Z,26.09
2022-08-02T09:22:40.299Z,26.14
2022-08-02T09:23:52.991Z,26.76
2022-08-02T09:24:55.378Z,27.22
2022-08-02T09:26:01.614Z,27.34
2022-08-02T09:27:12.108Z,27.24
2022-08-02T09:28:15.072Z,27.92
2022-08-02T09:29:19.262Z,28.26
2022-08-02T09:30:26.890Z,28.67
2022-08-02T09:31:29.159Z,28.99
2022-08-02T09:32:43.889Z,29.25
2022-08-02T09:33:52.735Z,28.02
2022-08-02T09:34:55.214Z,28.05
2022-08-02T09:36:08.575Z,28.65
2022-08-02T09:37:25.285Z,28.74
2022-08-02T09:38:28.684Z,28.06
2022-08-02T09:39:46.620Z,28.18
2022-08-02T09:40:50.559Z,28.67
2022-08-02T09:41:53.220Z,28.37
2022-08-02T09:42:59.358Z,28.13
2022-08-02T09:44:06.466Z,28.38
2022-08-02T09:45:09.602Z,28.67
2022-08-02T09:46:16.560Z,28.75
2022-08-02T09:47:18.913Z,28.24
2022-08-02T09:48:21.185Z,28.41
2022-08-02T09:49:23.607Z,28.85
2022-08-02T09:50:25.921Z,28.94
2022-08-02T09:51:31.066Z,29.04
2022-08-02T09:52:37.356Z,29.50
2022-08-02T09:53:46.785Z,29.92
2022-08-02T09:54:48.946Z,30.34
2022-08-02T09:55:57.691Z,30.36
2022-08-02T09:57:01.836Z,30.24
2022-08-02T09:58:20.563Z,30.26
2022-08-02T09:59:25.088Z,30.53
2022-08-02T10:00:50.841Z,30.14
2022-08-02T10:02:01.555Z,30.02
2022-08-02T10:03:21.752Z,29.45
2022-08-02T10:04:27.036Z,29.49
2022-08-02T10:05:32.188Z,29.03
2022-08-02T10:06:42.326Z,28.99
2022-08-02T10:07:44.925Z,28.25
2022-08-02T10:08:47.855Z,28.19
2022-08-02T10:09:51.909Z,28.79
2022-08-02T10:11:01.612Z,28.90
2022-08-02T10:12:05.562Z,28.62
2022-08-02T10:13:08.814Z,29.05
2022-08-02T10:14:12.274Z,29.67
2022-08-02T10:15:16.471Z,29.82
2022-08-02T10:16:23.450Z,30.27
2022-08-02T10:17:26.318Z,30.69
2022-08-02T10:18:38.928Z,30.79
2022-08-02T10:20:03.127Z,29.94
2022-08-02T10:21:10.241Z,29.63
2022-08-02T10:22:15.422Z,28.64
2022-08-02T10:23:21.315Z,29.05
2022-08-02T10:24:27.942Z,29.31
2022-08-02T10:25:31.314Z,29.84
2022-08-02T10:26:34.681Z,30.30
2022-08-02T10:28:03.636Z,29.76
2022-08-02T10:29:01.689Z,29.16
2022-08-02T10:30:04.546Z,29.54
2022-08-02T10:31:08.121Z,29.50
2022-08-02T10:32:13.970Z,29.84
2022-08-02T10:33:19.283Z,29.16
2022-08-02T10:34:24.886Z,29.16
2022-08-02T10:35:38.069Z,28.98
2022-08-02T10:36:42.218Z,28.25
2022-08-02T10:37:47.806Z,27.73
2022-08-02T10:38:50.704Z,27.25
2022-08-02T10:39:56.927Z,27.20
2022-08-02T10:40:59.442Z,27.01
2022-08-02T10:42:01.755Z,27.45
2022-08-02T10:43:04.112Z,27.80
2022-08-02T10:44:06.542Z,29.17
2022-08-02T10:45:26.988Z,29.80
2022-08-02T10:46:34.819Z,30.42
2022-08-02T10:47:37.477Z,30.32
2022-08-02T10:49:13.772Z,29.15
2022-08-02T10:50:45.702Z,28.62
2022-08-02T10:52:03.324Z,29.01
2022-08-02T10:53:28.750Z,29.41
2022-08-02T10:54:37.129Z,30.12
2022-08-02T10:55:46.217Z,29.33
2022-08-02T10:56:50.628Z,28.98
2022-08-02T10:58:26.305Z,29.01
2022-08-02T10:59:36.291Z,29.90
2022-08-02T11:00:38.932Z,30.16
2022-08-02T11:01:44.456Z,30.55
2022-08-02T11:02:53.242Z,30.58
2022-08-02T11:04:00.372Z,30.89
2022-08-02T11:05:12.599Z,31.47
2022-08-02T11:06:25.957Z,31.23
2022-08-02T11:07:35.200Z,31.75
2022-08-02T11:08:37.794Z,32.04
2022-08-02T11:09:42.048Z,32.08
2022-08-02T11:10:44.541Z,32.31
2022-08-02T11:12:02.379Z,31.63
2022-08-02T11:13:16.870Z,31.05
2022-08-02T11:14:19.268Z,30.86
2022-08-02T11:15:21.691Z,30.88
2022-08-02T11:16:56.153Z,30.59
2022-08-02T11:18:01.634Z,30.38
2022-08-02T11:19:06.691Z,30.56
2022-08-02T11:20:12.132Z,30.65
2022-08-02T11:21:21.010Z,30.56
2022-08-02T11:22:25.809Z,29.83
2022-08-02T11:23:44.219Z,29.96
2022-08-02T11:24:48.220Z,29.83
2022-08-02T11:26:03.528Z,29.90
2022-08-02T11:27:08.945Z,29.68
2022-08-02T11:28:12.216Z,29.79
2022-08-02T11:29:15.808Z,29.90
2022-08-02T11:30:19.800Z,30.60
2022-08-02T11:31:38.767Z,31.22
2022-08-02T11:32:41.588Z,31.58
2022-08-02T11:33:44.152Z,31.27
2022-08-02T11:34:49.019Z,31.50
2022-08-02T11:35:51.931Z,31.04
2022-08-02T11:36:54.270Z,30.45
2022-08-02T11:37:58.625Z,29.77
2022-08-02T11:39:15.746Z,29.84
2022-08-02T11:40:19.549Z,30.12
2022-08-02T11:41:46.516Z,30.93
2022-08-02T11:42:47.843Z,30.63
2022-08-02T11:43:56.188Z,30.19
2022-08-02T11:44:58.715Z,30.61
2022-08-02T11:46:05.011Z,31.19
2022-08-02T11:47:08.352Z,31.35
2022-08-02T11:48:10.773Z,31.74
2022-08-02T11:49:18.345Z,32.32
2022-08-02T11:50:29.977Z,32.51
2022-08-02T11:51:32.959Z,32.75
2022-08-02T11:52:36.029Z,31.92
2022-08-02T11:53:42.647Z,32.14
2022-08-02T11:54:45.279Z,31.60
2022-08-02T11:55:47.598Z,32.02
2022-08-02T11:56:49.918Z,32.07
2022-08-02T11:58:04.738Z,31.90
2022-08-02T11:59:10.259Z,31.62
2022-08-02T12:00:18.374Z,32.11
2022-08-02T12:01:20.832Z,31.23
2022-08-02T12:02:32.638Z,31.31
2022-08-02T12:03:39.236Z,31.55
2022-08-02T12:04:42.181Z,31.29
2022-08-02T12:06:05.276Z,30.75
2022-08-02T12:07:10.023Z,30.68
2022-08-02T12:08:12.288Z,30.82
2022-08-02T12:09:19.039Z,30.39
2022-08-02T12:10:24.105Z,30.38
2022-08-02T12:11:26.425Z,30.50
2022-08-02T12:12:56.259Z,30.76
2022-08-02T12:13:59.689Z,31.58
2022-08-02T12:15:02.031Z,31.48
2022-08-02T12:16:31.154Z,31.44
2022-08-02T12:17:52.419Z,31.61
2022-08-02T12:19:14.329Z,31.11
2022-08-02T12:20:17.288Z,31.23
2022-08-02T12:21:25.382Z,31.60
2022-08-02T12:22:28.087Z,32.00
2022-08-02T12:23:30.679Z,31.46
2022-08-02T12:24:33.754Z,31.03
2022-08-02T12:25:36.168Z,30.40
2022-08-02T12:26:45.965Z,29.92
2022-08-02T12:27:50.689Z,29.66
2022-08-02T12:28:57.807Z,30.00
2022-08-02T12:30:06.332Z,30.20
2022-08-02T12:31:14.210Z,30.29
2022-08-02T12:32:24.125Z,30.74
2022-08-02T12:33:29.155Z,30.98
2022-08-02T12:34:34.555Z,30.42
2022-08-02T12:35:36.948Z,30.51
2022-08-02T12:36:39.939Z,31.04
2022-08-02T12:37:47.481Z,30.94
2022-08-02T12:39:01.440Z,30.65
2022-08-02T12:40:25.283Z,31.55
2022-08-02T12:41:31.592Z,32.14
2022-08-02T12:42:47.343Z,32.17
2022-08-02T12:43:50.686Z,31.95
2022-08-02T12:45:00.176Z,32.27
2022-08-02T12:46:02.618Z,32.72
2022-08-02T12:47:12.538Z,32.86
2022-08-02T12:48:15.279Z,32.87
2022-08-02T12:49:19.164Z,32.62
2022-08-02T12:50:30.496Z,31.93
2022-08-02T12:51:51.412Z,31.98
2022-08-02T12:53:12.307Z,32.16
2022-08-02T12:54:31.782Z,31.53
2022-08-02T12:56:02.419Z,31.34
2022-08-02T12:57:14.671Z,31.74
2022-08-02T12:58:17.826Z,32.34
2022-08-02T12:59:39.034Z,32.18
2022-08-02T13:00:42.427Z,32.52
2022-08-02T13:01:45.787Z,32.53
2022-08-02T13:02:48.216Z,32.73
2022-08-02T13:04:10.963Z,33.02
2022-08-02T13:05:13.743Z,33.32
2022-08-02T13:06:40.825Z,33.20
2022-08-02T13:07:39.710Z,33.35
2022-08-02T13:08:42.063Z,33.43
2022-08-02T13:09:45.975Z,33.74
2022-08-02T13:10:48.420Z,33.71
2022-08-02T13:11:50.728Z,33.08
2022-08-02T13:12:53.161Z,33.53
2022-08-02T13:13:55.908Z,32.91
2022-08-02T13:14:58.413Z,32.66
2022-08-02T13:16:00.915Z,32.92
2022-08-02T13:17:03.221Z,32.66
2022-08-02T13:18:05.581Z,32.30
2022-08-02T13:19:09.237Z,32.17
2022-08-02T13:20:12.371Z,32.65
2022-08-02T13:21:26.879Z,32.88
2022-08-02T13:22:38.193Z,33.28
2022-08-02T13:23:55.083Z,33.65
2022-08-02T13:24:57.661Z,33.78
2022-08-02T13:26:00.509Z,33.50
2022-08-02T13:27:04.439Z,32.95
2022-08-02T13:28:10.264Z,33.09
2022-08-02T13:29:15.255Z,33.01
2022-08-02T13:30:18.086Z,32.82
2022-08-02T13:31:35.905Z,32.44
2022-08-02T13:32:39.241Z,32.98
2022-08-02T13:33:41.559Z,32.83
2022-08-02T13:34:44.477Z,33.19
2022-08-02T13:35:47.880Z,32.79
2022-08-02T13:36:50.195Z,32.09
2022-08-02T13:37:52.721Z,32.31
2022-08-02T13:38:55.388Z,32.73
2022-08-02T13:40:19.901Z,33.11
2022-08-02T13:41:20.020Z,32.88
2022-08-02T13:42:22.953Z,32.64
2022-08-02T13:43:26.357Z,32.40
2022-08-02T13:44:48.878Z,32.57
2022-08-02T13:45:51.477Z,32.82
2022-08-02T13:46:53.763Z,32.82
2022-08-02T13:48:03.309Z,32.75
2022-08-02T13:49:08.009Z,32.94
2022-08-02T13:50:10.503Z,33.04
2022-08-02T13:51:14.897Z,33.55
2022-08-02T13:52:17.549Z,33.94
2022-08-02T13:53:20.167Z,32.42
2022-08-02T13:54:22.410Z,32.47
2022-08-02T13:55:24.951Z,32.12
2022-08-02T13:56:35.810Z,31.64
2022-08-02T13:57:38.699Z,31.81
2022-08-02T13:58:43.740Z,32.01
2022-08-02T13:59:56.938Z,32.01
2022-08-02T14:01:00.636Z,32.60
2022-08-02T14:02:03.128Z,32.89
2022-08-02T14:03:07.229Z,32.42
2022-08-02T14:04:09.763Z,32.57
2022-08-02T14:05:12.088Z,32.01
2022-08-02T14:06:14.462Z,32.10
2022-08-02T14:07:16.760Z,32.31
2022-08-02T14:08:20.668Z,31.81
2022-08-02T14:09:22.916Z,31.89
2022-08-02T14:10:26.308Z,32.69
2022-08-02T14:11:32.721Z,32.92
2022-08-02T14:12:35.060Z,32.39
2022-08-02T14:13:37.371Z,32.89
2022-08-02T14:14:39.743Z,33.40
2022-08-02T14:15:42.925Z,33.46
2022-08-02T14:16:45.737Z,33.37